Terminal Aerodrome Forecast
Issued by NWS Birmingham, AL

Home | Current Version | Previous Version | Text Only | Print | Product List | Glossary On
Versions: 1 2 3 4 5 6 7 8 9 10 11 12 13 14 15 16 17 18 19 20 21 22 23 24
000
FTUS44 KBMX 012331
TAFBHM
TAF
KBHM 012331Z 0200/0224 14005KT P6SM BKN090
     FM020900 VRB02KT P6SM BKN015
     FM021500 19005KT P6SM VCSH OVC040
     FM021700 20006KT P6SM SHRA VCTS OVC040CB=

USA.gov is the U.S. government's official web portal to all federal, state and local government web resources and services.